createdAt,value
2018-05-12T00:02:03.260Z,96.27
2018-05-12T00:04:30.740Z,94.80
2018-05-12T00:06:58.224Z,94.33
2018-05-12T00:09:25.711Z,97.24
2018-05-12T00:11:53.176Z,98.30
2018-05-12T00:14:20.639Z,98.04
2018-05-12T00:16:48.121Z,99.11
2018-05-12T00:19:15.995Z,99.50
2018-05-12T00:21:43.488Z,98.44
2018-05-12T00:24:10.946Z,98.49
2018-05-12T00:26:38.431Z,99.17
2018-05-12T00:29:05.902Z,100.00
2018-05-12T00:31:33.387Z,100.00
2018-05-12T00:34:00.884Z,100.00
2018-05-12T00:36:28.360Z,100.00
2018-05-12T00:38:55.844Z,100.00
2018-05-12T00:41:23.491Z,100.00
2018-05-12T00:43:50.991Z,100.00
2018-05-12T00:46:18.460Z,100.00
2018-05-12T00:48:45.932Z,100.00
2018-05-12T00:51:13.415Z,100.00
2018-05-12T00:53:40.881Z,100.00
2018-05-12T00:56:08.408Z,100.00
2018-05-12T00:58:35.882Z,100.00
2018-05-12T01:01:03.365Z,100.00
2018-05-12T01:03:30.856Z,100.00
2018-05-12T01:05:58.319Z,100.00
2018-05-12T01:08:25.813Z,100.00
2018-05-12T01:10:53.284Z,100.00
2018-05-12T01:13:20.751Z,100.00
2018-05-12T01:15:48.245Z,100.00
2018-05-12T01:18:15.726Z,100.00
2018-05-12T01:20:43.247Z,100.00
2018-05-12T01:23:10.726Z,100.00
2018-05-12T01:25:38.208Z,100.00
2018-05-12T01:28:05.700Z,100.00
2018-05-12T01:30:33.167Z,100.00
2018-05-12T01:33:00.668Z,100.00
2018-05-12T01:35:28.149Z,100.00
2018-05-12T01:37:55.617Z,100.00
2018-05-12T01:40:23.107Z,100.00
2018-05-12T01:42:50.588Z,100.00
2018-05-12T01:45:18.072Z,100.00
2018-05-12T01:47:45.613Z,100.00
2018-05-12T01:50:13.081Z,100.00
2018-05-12T01:52:40.572Z,100.00
2018-05-12T01:55:08.031Z,100.00
2018-05-12T01:57:35.526Z,100.00
2018-05-12T02:00:02.995Z,100.00
2018-05-12T02:02:30.495Z,100.00
2018-05-12T02:04:57.996Z,100.00
2018-05-12T02:07:25.473Z,100.00
2018-05-12T02:09:52.961Z,100.00
2018-05-12T02:12:20.435Z,100.00
2018-05-12T02:14:47.906Z,100.00
2018-05-12T02:17:15.400Z,100.00
2018-05-12T02:19:42.889Z,100.00
2018-05-12T02:22:10.379Z,100.00
2018-05-12T02:24:37.843Z,100.00
2018-05-12T02:27:05.338Z,100.00
2018-05-12T02:29:32.904Z,100.00
2018-05-12T02:32:00.376Z,100.00
2018-05-12T02:34:27.905Z,100.00
2018-05-12T02:36:55.360Z,100.00
2018-05-12T02:39:22.959Z,100.00
2018-05-12T02:41:50.367Z,100.00
2018-05-12T02:44:17.887Z,100.00
2018-05-12T02:46:45.359Z,100.00
2018-05-12T02:49:12.828Z,100.00
2018-05-12T02:51:40.315Z,100.00
2018-05-12T02:54:07.789Z,100.00
2018-05-12T02:56:35.701Z,100.00
2018-05-12T02:59:03.172Z,100.00
2018-05-12T03:01:30.682Z,100.00
2018-05-12T03:03:58.152Z,100.00
2018-05-12T03:06:25.624Z,100.00
2018-05-12T03:08:53.132Z,100.00
2018-05-12T03:11:20.600Z,100.00
2018-05-12T03:13:48.112Z,100.00
2018-05-12T03:16:15.580Z,100.00
2018-05-12T03:18:43.048Z,100.00
2018-05-12T03:21:10.531Z,100.00
2018-05-12T03:23:37.999Z,100.00
2018-05-12T03:26:05.509Z,100.00
2018-05-12T03:28:32.984Z,100.00
2018-05-12T03:31:00.465Z,100.00
2018-05-12T03:33:27.965Z,100.00
2018-05-12T03:35:55.439Z,100.00
2018-05-12T03:38:23.075Z,100.00
2018-05-12T03:40:50.557Z,100.00
2018-05-12T03:43:18.019Z,100.00
2018-05-12T03:45:45.500Z,100.00
2018-05-12T03:48:12.979Z,100.00
2018-05-12T03:50:40.463Z,100.00
2018-05-12T03:53:07.946Z,100.00
2018-05-12T03:55:35.404Z,100.00
2018-05-12T03:58:02.901Z,100.00
2018-05-12T04:00:30.379Z,100.00
2018-05-12T04:02:57.866Z,100.00
2018-05-12T04:05:37.022Z,100.00
2018-05-12T04:08:16.257Z,100.00
2018-05-12T04:13:38.178Z,100.00
2018-05-12T04:16:05.647Z,100.00
2018-05-12T04:18:33.120Z,100.00
2018-05-12T04:21:00.624Z,100.00
2018-05-12T04:23:28.096Z,100.00
2018-05-12T04:25:55.580Z,100.00
2018-05-12T04:28:23.040Z,100.00
2018-05-12T04:30:50.531Z,100.00
2018-05-12T04:33:18.002Z,100.00
2018-05-12T04:35:45.468Z,100.00
2018-05-12T04:38:12.955Z,100.00
2018-05-12T04:40:40.426Z,100.00
2018-05-12T04:43:07.908Z,100.00
2018-05-12T04:45:35.376Z,100.00
2018-05-12T04:48:02.863Z,100.00
2018-05-12T04:50:30.330Z,100.00
2018-05-12T04:52:57.920Z,100.00
2018-05-12T04:55:25.417Z,100.00
2018-05-12T04:57:52.877Z,100.00
2018-05-12T05:00:20.376Z,100.00
2018-05-12T05:02:47.847Z,100.00
2018-05-12T05:05:15.319Z,100.00
2018-05-12T05:07:42.807Z,100.00
2018-05-12T05:10:10.281Z,100.00
2018-05-12T05:12:37.762Z,100.00
2018-05-12T05:15:05.232Z,100.00
2018-05-12T05:17:32.704Z,100.00
2018-05-12T05:20:00.187Z,100.00
2018-05-12T05:22:27.651Z,98.41
2018-05-12T05:24:55.373Z,97.85
2018-05-12T05:27:22.845Z,96.74
2018-05-12T05:29:50.308Z,95.39
2018-05-12T05:32:17.794Z,96.59
2018-05-12T05:34:45.257Z,98.63
2018-05-12T05:37:12.746Z,98.54
2018-05-12T05:39:40.211Z,98.36
2018-05-12T05:42:07.680Z,98.31
2018-05-12T05:44:35.157Z,96.62
2018-05-12T05:47:02.620Z,96.25
2018-05-12T05:49:30.114Z,93.60
2018-05-12T05:51:57.569Z,90.54
2018-05-12T05:54:25.038Z,92.22
2018-05-12T05:56:52.523Z,91.79
2018-05-12T05:59:19.980Z,91.91
2018-05-12T06:01:47.467Z,90.88
2018-05-12T06:04:14.940Z,91.35
2018-05-12T06:06:42.405Z,91.47
2018-05-12T06:09:09.907Z,93.00
2018-05-12T06:11:37.382Z,94.58
2018-05-12T06:14:04.863Z,92.49
2018-05-12T06:16:32.335Z,92.65
2018-05-12T06:19:00.462Z,92.51
2018-05-12T06:21:28.055Z,91.71
2018-05-12T06:23:55.513Z,90.18
2018-05-12T06:26:23.196Z,89.93
2018-05-12T06:28:50.679Z,90.93
2018-05-12T06:31:18.153Z,92.40
2018-05-12T06:33:45.879Z,92.61
2018-05-12T06:36:13.344Z,91.78
2018-05-12T06:38:40.844Z,91.26
2018-05-12T06:41:08.323Z,91.47
2018-05-12T06:43:35.784Z,91.65
2018-05-12T06:46:03.272Z,91.86
2018-05-12T06:48:30.748Z,91.36
2018-05-12T06:50:58.211Z,89.55
2018-05-12T06:53:25.690Z,89.62
2018-05-12T06:55:53.163Z,93.46
2018-05-12T06:58:20.648Z,88.65
2018-05-12T07:00:48.111Z,89.49
2018-05-12T07:03:15.571Z,86.45
2018-05-12T07:05:43.045Z,85.82
2018-05-12T07:08:10.515Z,87.35
2018-05-12T07:10:37.975Z,86.26
2018-05-12T07:13:05.491Z,88.67
2018-05-12T07:15:32.970Z,87.25
2018-05-12T07:18:00.781Z,83.44
2018-05-12T07:20:28.248Z,82.22
2018-05-12T07:22:55.760Z,83.32
2018-05-12T07:25:23.216Z,82.76
2018-05-12T07:27:50.676Z,83.80
2018-05-12T07:30:18.154Z,84.14
2018-05-12T07:32:45.623Z,83.58
2018-05-12T07:35:13.099Z,83.18
2018-05-12T07:37:40.568Z,85.31
2018-05-12T07:40:08.040Z,83.48
2018-05-12T07:42:35.527Z,81.60
2018-05-12T07:45:02.999Z,79.92
2018-05-12T07:47:30.495Z,79.95
2018-05-12T07:49:57.965Z,80.01
2018-05-12T07:52:25.468Z,82.42
2018-05-12T07:54:52.963Z,81.78
2018-05-12T07:57:20.415Z,81.23
2018-05-12T07:59:47.893Z,80.19
2018-05-12T08:02:15.612Z,80.47
2018-05-12T08:04:43.089Z,80.09
2018-05-12T08:07:10.564Z,78.67
2018-05-12T08:09:38.041Z,77.42
2018-05-12T08:12:05.819Z,76.96
2018-05-12T08:14:33.285Z,75.35
2018-05-12T08:17:00.748Z,76.41
2018-05-12T08:19:28.238Z,78.69
2018-05-12T08:21:56.040Z,74.67
2018-05-12T08:24:23.527Z,75.56
2018-05-12T08:26:51.036Z,76.76
2018-05-12T08:29:18.578Z,77.22
2018-05-12T08:31:46.066Z,77.60
2018-05-12T08:34:13.537Z,77.67
2018-05-12T08:36:41.012Z,76.05
2018-05-12T08:39:08.463Z,78.22
2018-05-12T08:41:35.962Z,77.56
2018-05-12T08:44:03.427Z,75.33
2018-05-12T08:46:30.896Z,75.93
2018-05-12T08:48:58.380Z,76.79
2018-05-12T08:51:25.838Z,78.21
2018-05-12T08:53:53.315Z,76.47
2018-05-12T08:56:20.788Z,75.49
2018-05-12T08:58:48.256Z,75.10
2018-05-12T09:01:15.747Z,75.10
2018-05-12T09:03:43.216Z,74.83
2018-05-12T09:06:10.700Z,73.73
2018-05-12T09:08:38.164Z,74.93
2018-05-12T09:11:05.624Z,72.67
2018-05-12T09:13:33.108Z,74.35
2018-05-12T09:16:00.581Z,74.99
2018-05-12T09:18:28.063Z,73.91
2018-05-12T09:20:55.532Z,73.77
2018-05-12T09:23:22.996Z,71.26
2018-05-12T09:25:50.476Z,73.72
2018-05-12T09:28:17.945Z,73.81
2018-05-12T09:30:45.429Z,72.15
2018-05-12T09:33:12.896Z,69.92
2018-05-12T09:35:40.367Z,69.88
2018-05-12T09:38:07.849Z,70.18
2018-05-12T09:40:35.313Z,69.01
2018-05-12T09:43:02.799Z,68.52
2018-05-12T09:45:30.263Z,69.05
2018-05-12T09:47:57.727Z,66.36
2018-05-12T09:50:25.231Z,66.34
2018-05-12T09:52:52.688Z,68.18
2018-05-12T09:55:20.181Z,66.07
2018-05-12T09:57:47.648Z,65.34
2018-05-12T10:00:16.031Z,65.85
2018-05-12T10:02:43.510Z,65.05
2018-05-12T10:05:10.967Z,62.81
2018-05-12T10:07:38.460Z,61.75
2018-05-12T10:10:05.931Z,63.86
2018-05-12T10:12:33.380Z,59.75
2018-05-12T10:15:00.860Z,58.04
2018-05-12T10:17:28.318Z,58.77
2018-05-12T10:19:55.793Z,58.07
2018-05-12T10:22:23.260Z,60.01
2018-05-12T10:24:51.107Z,53.62
2018-05-12T10:27:18.569Z,57.45
2018-05-12T10:29:46.027Z,58.05
2018-05-12T10:32:13.505Z,57.51
2018-05-12T10:34:40.965Z,56.97
2018-05-12T10:37:08.440Z,55.13
2018-05-12T10:39:35.897Z,54.48
2018-05-12T10:42:03.357Z,56.50
2018-05-12T10:44:30.831Z,55.26
2018-05-12T10:46:58.649Z,56.68
2018-05-12T10:49:26.120Z,52.81
2018-05-12T10:51:53.571Z,54.78
2018-05-12T10:54:21.020Z,53.21
2018-05-12T10:56:48.483Z,54.22
2018-05-12T10:59:15.939Z,53.69
2018-05-12T11:01:43.431Z,52.33
2018-05-12T11:04:10.900Z,50.72
2018-05-12T11:06:39.299Z,50.33
2018-05-12T11:09:06.779Z,49.95
2018-05-12T11:11:34.241Z,51.75
2018-05-12T11:14:01.709Z,49.09
2018-05-12T11:16:29.169Z,49.50
2018-05-12T11:18:57.049Z,49.39
2018-05-12T11:21:24.504Z,48.24
2018-05-12T11:23:51.964Z,48.53
2018-05-12T11:26:19.438Z,48.77
2018-05-12T11:28:46.892Z,48.96
2018-05-12T11:31:14.361Z,47.33
2018-05-12T11:33:41.828Z,45.37
2018-05-12T11:36:09.307Z,41.94
2018-05-12T11:38:36.819Z,39.64
2018-05-12T11:41:04.227Z,42.56
2018-05-12T11:43:31.700Z,42.57
2018-05-12T11:45:59.157Z,42.17
2018-05-12T11:48:26.631Z,37.80
2018-05-12T11:50:54.083Z,40.36
2018-05-12T11:53:21.867Z,38.44
2018-05-12T11:55:49.346Z,39.02
2018-05-12T11:58:17.134Z,36.39
2018-05-12T12:00:44.540Z,36.84
2018-05-12T12:03:11.991Z,42.78
2018-05-12T12:05:39.456Z,35.63
2018-05-12T12:08:06.923Z,39.01
2018-05-12T12:10:34.378Z,30.61
2018-05-12T12:13:01.841Z,29.53
2018-05-12T12:15:29.308Z,29.32
2018-05-12T12:17:56.782Z,33.34
2018-05-12T12:20:24.257Z,34.33
2018-05-12T12:22:51.712Z,35.81
2018-05-12T12:25:19.212Z,37.40
2018-05-12T12:27:46.672Z,36.01
2018-05-12T12:30:14.123Z,37.01
2018-05-12T12:32:41.606Z,35.01
2018-05-12T12:35:09.062Z,36.20
2018-05-12T12:37:36.539Z,37.24
2018-05-12T12:40:04.001Z,35.36
2018-05-12T12:42:31.463Z,32.84
2018-05-12T12:44:58.946Z,34.61
2018-05-12T12:47:26.415Z,35.90
2018-05-12T12:49:53.899Z,36.56
2018-05-12T12:52:21.356Z,38.72
2018-05-12T12:54:48.998Z,37.82
2018-05-12T12:57:16.462Z,36.72
2018-05-12T12:59:43.920Z,36.80
2018-05-12T13:02:11.411Z,38.55
2018-05-12T13:04:38.868Z,41.33
2018-05-12T13:07:06.340Z,37.43
2018-05-12T13:09:33.797Z,39.30
2018-05-12T13:12:01.260Z,39.99
2018-05-12T13:14:28.736Z,42.59
2018-05-12T13:16:56.196Z,44.34
2018-05-12T13:19:23.668Z,44.82
2018-05-12T13:21:51.120Z,44.65
2018-05-12T13:24:18.583Z,44.85
2018-05-12T13:26:46.071Z,46.55
2018-05-12T13:29:13.537Z,46.99
2018-05-12T13:31:41.010Z,47.93
2018-05-12T13:34:08.469Z,47.26
2018-05-12T13:36:35.948Z,43.69
2018-05-12T13:39:03.434Z,44.63
2018-05-12T13:41:30.896Z,44.93
2018-05-12T13:43:58.364Z,46.64
2018-05-12T13:46:25.821Z,45.84
2018-05-12T13:48:53.339Z,44.41
2018-05-12T13:51:20.928Z,46.11
2018-05-12T13:53:48.384Z,45.97
2018-05-12T13:56:16.078Z,47.08
2018-05-12T13:58:43.540Z,47.00
2018-05-12T14:01:11.008Z,43.92
2018-05-12T14:03:38.496Z,42.65
2018-05-12T14:06:05.956Z,42.36
2018-05-12T14:08:33.448Z,38.77
2018-05-12T14:11:00.904Z,40.06
2018-05-12T14:13:28.354Z,39.13
2018-05-12T14:15:55.827Z,37.47
2018-05-12T14:18:23.296Z,37.42
2018-05-12T14:20:50.779Z,37.69
2018-05-12T14:23:18.235Z,36.96
2018-05-12T14:25:45.708Z,37.29
2018-05-12T14:28:13.175Z,36.11
2018-05-12T14:30:40.632Z,36.29
2018-05-12T14:33:08.117Z,35.53
2018-05-12T14:35:35.579Z,35.89
2018-05-12T14:38:03.077Z,35.35
2018-05-12T14:40:30.533Z,37.07
2018-05-12T14:42:58.007Z,36.67
2018-05-12T14:45:25.473Z,37.78
2018-05-12T14:47:52.972Z,35.47
2018-05-12T14:50:20.444Z,35.50
2018-05-12T14:52:47.907Z,36.39
2018-05-12T14:55:15.476Z,34.00
2018-05-12T14:57:43.224Z,36.25
2018-05-12T15:00:10.740Z,36.28
2018-05-12T15:02:38.267Z,38.46
2018-05-12T15:05:05.737Z,36.57
2018-05-12T15:07:33.216Z,38.39
2018-05-12T15:10:00.699Z,37.75
2018-05-12T15:12:28.183Z,38.71
2018-05-12T15:14:55.731Z,39.16
2018-05-12T15:17:23.125Z,41.93
2018-05-12T15:19:50.974Z,41.87
2018-05-12T15:22:18.427Z,43.19
2018-05-12T15:24:45.916Z,42.16
2018-05-12T15:27:13.376Z,43.75
2018-05-12T15:29:40.820Z,44.56
2018-05-12T15:32:08.325Z,42.74
2018-05-12T15:34:35.795Z,42.83
2018-05-12T15:37:03.303Z,43.07
2018-05-12T15:39:30.768Z,42.31
2018-05-12T15:41:58.240Z,40.23
2018-05-12T15:44:25.712Z,41.24
2018-05-12T15:46:53.181Z,42.20
2018-05-12T15:49:20.663Z,39.99
2018-05-12T15:51:48.119Z,40.15
2018-05-12T15:54:15.578Z,41.01
2018-05-12T15:56:43.059Z,39.51
2018-05-12T15:59:10.516Z,40.54
2018-05-12T16:01:38.012Z,40.22
2018-05-12T16:04:05.470Z,40.30
2018-05-12T16:06:32.925Z,38.15
2018-05-12T16:09:00.402Z,38.09
2018-05-12T16:11:27.860Z,37.56
2018-05-12T16:13:55.673Z,38.06
2018-05-12T16:16:23.127Z,38.01
2018-05-12T16:18:50.587Z,37.48
2018-05-12T16:21:18.149Z,38.72
2018-05-12T16:23:45.634Z,36.91
2018-05-12T16:26:13.282Z,38.64
2018-05-12T16:28:40.739Z,39.20
2018-05-12T16:31:08.195Z,40.60
2018-05-12T16:33:35.743Z,38.52
2018-05-12T16:36:03.194Z,37.90
2018-05-12T16:38:30.680Z,37.50
2018-05-12T16:40:58.140Z,38.29
2018-05-12T16:43:25.609Z,40.51
2018-05-12T16:45:53.079Z,42.24
2018-05-12T16:48:20.535Z,40.44
2018-05-12T16:50:48.048Z,41.36
2018-05-12T16:53:15.490Z,40.55
2018-05-12T16:55:42.948Z,40.28
2018-05-12T16:58:10.425Z,40.54
2018-05-12T17:00:37.879Z,39.27
2018-05-12T17:03:05.366Z,41.33
2018-05-12T17:05:32.868Z,38.33
2018-05-12T17:08:00.331Z,43.35
2018-05-12T17:10:27.847Z,43.16
2018-05-12T17:12:55.300Z,41.53
2018-05-12T17:15:22.804Z,42.75
2018-05-12T17:17:50.262Z,40.53
2018-05-12T17:20:17.828Z,44.06
2018-05-12T17:22:45.220Z,44.35
2018-05-12T17:25:12.672Z,42.88
2018-05-12T17:27:40.153Z,45.15
2018-05-12T17:30:07.609Z,48.51
2018-05-12T17:32:35.144Z,49.86
2018-05-12T17:35:02.612Z,51.76
2018-05-12T17:37:30.286Z,54.91
2018-05-12T17:39:57.768Z,56.93
2018-05-12T17:42:25.228Z,57.33
2018-05-12T17:44:52.962Z,59.50
2018-05-12T17:47:20.429Z,60.57
2018-05-12T17:49:47.880Z,61.02
2018-05-12T17:52:15.362Z,63.02
2018-05-12T17:54:42.836Z,62.05
2018-05-12T17:57:10.519Z,62.41
2018-05-12T17:59:38.010Z,61.64
2018-05-12T18:02:05.482Z,61.50
2018-05-12T18:04:33.049Z,62.15
2018-05-12T18:07:00.492Z,62.45
2018-05-12T18:09:27.988Z,63.19
2018-05-12T18:11:55.753Z,64.05
2018-05-12T18:14:23.217Z,65.58
2018-05-12T18:16:50.694Z,65.99
2018-05-12T18:19:18.158Z,65.65
2018-05-12T18:21:45.656Z,66.64
2018-05-12T18:24:13.127Z,66.82
2018-05-12T18:26:40.808Z,67.92
2018-05-12T18:29:08.287Z,68.78
2018-05-12T18:31:36.539Z,69.63
2018-05-12T18:34:04.032Z,69.81
2018-05-12T18:36:31.483Z,71.64
2018-05-12T18:38:58.945Z,71.05
2018-05-12T18:41:26.412Z,71.87
2018-05-12T18:43:53.919Z,71.78
2018-05-12T18:46:22.089Z,72.22
2018-05-12T18:48:49.549Z,72.51
2018-05-12T18:51:17.045Z,72.76
2018-05-12T18:53:44.502Z,72.70
2018-05-12T18:56:11.962Z,73.75
2018-05-12T18:58:39.458Z,73.20
2018-05-12T19:01:06.920Z,73.25
2018-05-12T19:03:34.407Z,73.42
2018-05-12T19:06:01.864Z,73.85
2018-05-12T19:08:29.373Z,73.53
2018-05-12T19:10:56.841Z,74.40
2018-05-12T19:13:24.301Z,75.29
2018-05-12T19:15:51.771Z,75.40
2018-05-12T19:18:19.240Z,76.26
2018-05-12T19:20:46.724Z,75.53
2018-05-12T19:23:14.190Z,75.02
2018-05-12T19:25:41.652Z,75.11
2018-05-12T19:28:09.396Z,75.65
2018-05-12T19:30:36.859Z,75.22
2018-05-12T19:33:04.342Z,74.85
2018-05-12T19:35:31.803Z,74.67
2018-05-12T19:37:59.252Z,74.14
2018-05-12T19:40:26.731Z,74.73
2018-05-12T19:42:54.184Z,74.14
2018-05-12T19:45:21.656Z,74.43
2018-05-12T19:47:49.110Z,76.07
2018-05-12T19:50:16.580Z,75.48
2018-05-12T19:52:44.071Z,75.69
2018-05-12T19:55:11.523Z,76.31
2018-05-12T19:57:39.014Z,76.23
2018-05-12T20:00:06.487Z,77.82
2018-05-12T20:02:33.988Z,77.43
2018-05-12T20:05:01.444Z,77.78
2018-05-12T20:07:28.907Z,77.71
2018-05-12T20:09:56.459Z,77.34
2018-05-12T20:12:23.870Z,77.83
2018-05-12T20:14:51.358Z,78.79
2018-05-12T20:17:18.832Z,77.68
2018-05-12T20:19:46.301Z,79.76
2018-05-12T20:22:13.783Z,78.70
2018-05-12T20:24:41.250Z,79.21
2018-05-12T20:27:08.736Z,79.08
2018-05-12T20:29:36.200Z,79.78
2018-05-12T20:32:03.672Z,79.91
2018-05-12T20:34:31.164Z,80.62
2018-05-12T20:36:58.624Z,80.38
2018-05-12T20:39:26.568Z,80.96
2018-05-12T20:41:54.044Z,80.83
2018-05-12T20:44:21.512Z,80.83
2018-05-12T20:46:49.001Z,80.79
2018-05-12T20:49:16.458Z,81.11
2018-05-12T20:51:44.182Z,82.05
2018-05-12T20:54:11.642Z,82.09
2018-05-12T20:56:39.103Z,82.97
2018-05-12T20:59:06.583Z,82.36
2018-05-12T21:01:34.051Z,84.22
2018-05-12T21:04:01.533Z,84.51
2018-05-12T21:06:29.008Z,85.31
2018-05-12T21:08:56.520Z,85.39
2018-05-12T21:11:23.987Z,86.62
2018-05-12T21:13:51.448Z,86.45
2018-05-12T21:16:19.085Z,85.53
2018-05-12T21:18:46.544Z,86.34
2018-05-12T21:21:14.028Z,85.92
2018-05-12T21:23:41.586Z,86.37
2018-05-12T21:26:09.069Z,87.01
2018-05-12T21:28:36.652Z,87.14
2018-05-12T21:31:04.129Z,87.40
2018-05-12T21:33:31.603Z,87.95
2018-05-12T21:35:59.065Z,89.51
2018-05-12T21:38:26.560Z,89.44
2018-05-12T21:40:54.024Z,89.77
2018-05-12T21:43:21.494Z,89.39
2018-05-12T21:45:48.973Z,90.87
2018-05-12T21:48:16.439Z,91.90
2018-05-12T21:50:44.144Z,92.82
2018-05-12T21:53:11.612Z,93.36
2018-05-12T21:55:39.075Z,92.69
2018-05-12T21:58:06.565Z,92.78
2018-05-12T22:00:34.032Z,93.89
2018-05-12T22:03:01.525Z,93.62
2018-05-12T22:05:28.978Z,94.01
2018-05-12T22:07:56.465Z,95.38
2018-05-12T22:10:23.946Z,96.00
2018-05-12T22:12:51.424Z,96.18
2018-05-12T22:15:18.926Z,96.37
2018-05-12T22:17:46.390Z,97.04
2018-05-12T22:20:13.863Z,96.60
2018-05-12T22:22:41.350Z,96.93
2018-05-12T22:25:08.820Z,97.53
2018-05-12T22:27:36.661Z,98.31
2018-05-12T22:30:04.148Z,97.74
2018-05-12T22:32:31.643Z,98.63
2018-05-12T22:34:59.118Z,98.59
2018-05-12T22:37:26.587Z,97.61
2018-05-12T22:39:54.091Z,99.36
2018-05-12T22:42:21.619Z,99.04
2018-05-12T22:44:49.100Z,99.07
2018-05-12T22:47:16.591Z,100.00
2018-05-12T22:49:44.075Z,100.00
2018-05-12T22:52:11.571Z,100.00
2018-05-12T22:54:39.047Z,100.00
2018-05-12T22:57:06.559Z,100.00
2018-05-12T22:59:34.035Z,100.00
2018-05-12T23:02:01.512Z,100.00
2018-05-12T23:04:28.991Z,100.00
2018-05-12T23:06:56.459Z,100.00
2018-05-12T23:09:23.946Z,100.00
2018-05-12T23:11:51.416Z,100.00
2018-05-12T23:14:18.891Z,100.00
2018-05-12T23:16:46.383Z,100.00
2018-05-12T23:19:13.860Z,100.00
2018-05-12T23:21:41.348Z,100.00
2018-05-12T23:24:08.830Z,100.00
2018-05-12T23:26:36.318Z,100.00
2018-05-12T23:29:03.787Z,100.00
2018-05-12T23:31:31.288Z,100.00
2018-05-12T23:33:58.760Z,100.00
2018-05-12T23:36:26.236Z,100.00
2018-05-12T23:38:53.716Z,100.00
2018-05-12T23:41:21.184Z,100.00
2018-05-12T23:43:48.691Z,100.00
2018-05-12T23:46:16.159Z,100.00
2018-05-12T23:48:43.660Z,100.00
2018-05-12T23:51:11.144Z,100.00
2018-05-12T23:53:38.617Z,100.00
2018-05-12T23:56:06.105Z,100.00
2018-05-12T23:58:33.584Z,100.00
